Дата Пункты Температура Давл., мм. Влажн., % Ветер Погодные явления
Воздуха Воды Направл. Скорость
13.01.20 05:00 Одесса 2.0 5.0 766 79 З 2 05 ГОДИН
13.01.20 02:00 Одесса 1.0 5.0 767 75 З 2 02 ГОДИНИ
12.01.20 08:00 Одесса 1.0 6.0 768 75 З 2 20 ГОДИН
12.01.20 05:00 Одесса 4.0 6.0 768 64 Пн-З 2 17 ГОДИН
12.01.20 02:00 Одесса 6.0 6.0 767 61 Пн 2 14 ГОДИН
12.01.20 11:00 Одесса 3.0 6.0 768 70 Пн 2 11 ГОДИН
12.01.20 08:00 Одесса 2.0 6.0 767 74 Пн 5 08 ГОДИН
12.01.20 05:00 Одесса 5.0 6.0 765 85 Пн 4 05 ГОДИН
11.01.20 11:00 Одесса 5.0 6.0 763 80 Пн-З 2 23 ГОДИНИ
11.01.20 08:00 Одесса 7.0 6.0 763 74 Пн-З 3 20 ГОДИН
11.01.20 05:00 Одесса 7.0 6.0 762 76 З 2 17 ГОДИН
11.01.20 02:00 Одесса 11.0 6.0 761 65 Пн-З 1 14 ГОДИН
11.01.20 11:00 Одесса 8.0 5.0 762 65 Пн-З 3 11 ГОДИН
11.01.20 08:00 Одесса 1.0 5.0 762 80 З 1 08 ГОДИН
11.01.20 05:00 Одесса 2.0 5.0 762 80 З 2 05 ГОДИН
11.01.20 02:00 Одесса 2.0 5.0 762 81 З 1 02 ГОДИНИ
10.01.20 11:00 Одесса 4.0 5.0 762 75 Пд-З 2 23 ГОДИНИ
10.01.20 08:00 Одесса 4.0 5.0 763 79 Пн 0 20 ГОДИН
10.01.20 05:00 Одесса 3.0 5.0 763 88 Пд 1 17 ГОДИН
10.01.20 02:00 Одесса 4.0 5.0 763 82 З 1 14 ГОДИН
Количество строк
1 2 3 4 5 6 7 8 9 10
Page 6 of 579